createdAt,value
2023-01-25T00:02:42.672Z,100851.81
2023-01-25T00:05:56.832Z,100845.62
2023-01-25T00:09:08.973Z,100837.86
2023-01-25T00:12:20.933Z,100836.99
2023-01-25T00:15:33.057Z,100836.16
2023-01-25T00:18:45.197Z,100829.93
2023-01-25T00:21:57.658Z,100819.64
2023-01-25T00:25:10.786Z,100829.83
2023-01-25T00:28:22.971Z,100833.36
2023-01-25T00:31:48.631Z,100845.53
2023-01-25T00:35:01.234Z,100824.59
2023-01-25T00:38:20.838Z,100824.51
2023-01-25T00:41:33.121Z,100826.20
2023-01-25T00:44:45.741Z,100836.59
2023-01-25T00:48:00.497Z,100832.27
2023-01-25T00:51:24.808Z,100818.41
2023-01-25T00:54:37.077Z,100819.31
2023-01-25T00:57:49.034Z,100809.59
2023-01-25T01:01:02.087Z,100813.91
2023-01-25T01:04:15.380Z,100818.36
2023-01-25T01:07:27.463Z,100813.07
2023-01-25T01:10:39.635Z,100801.69
2023-01-25T01:13:51.884Z,100796.41
2023-01-25T01:17:03.797Z,100792.83
2023-01-25T01:20:18.467Z,100796.99
2023-01-25T01:23:30.544Z,100789.03
2023-01-25T01:26:42.642Z,100786.38
2023-01-25T01:29:54.556Z,100770.66
2023-01-25T01:33:06.548Z,100760.19
2023-01-25T01:36:23.375Z,100754.38
2023-01-25T01:39:35.676Z,100744.06
2023-01-25T01:43:05.424Z,100747.44
2023-01-25T01:46:26.859Z,100751.95
2023-01-25T01:49:41.165Z,100751.03
2023-01-25T01:52:55.967Z,100749.23
2023-01-25T01:56:12.840Z,100743.08
2023-01-25T01:59:23.759Z,100737.80
2023-01-25T02:02:35.797Z,100735.13
2023-01-25T02:05:54.383Z,100722.00
2023-01-25T02:09:07.919Z,100715.78
2023-01-25T02:12:21.575Z,100713.16
2023-01-25T02:15:43.192Z,100713.11
2023-01-25T02:18:55.657Z,100712.29
2023-01-25T02:22:10.461Z,100713.98
2023-01-25T02:25:23.801Z,100722.00
2023-01-25T02:28:40.917Z,100716.91
2023-01-25T02:31:53.634Z,100724.14
2023-01-25T02:35:06.083Z,100730.97
2023-01-25T02:38:22.043Z,100724.08
2023-01-25T02:41:41.049Z,100722.19
2023-01-25T02:44:54.941Z,100718.07
2023-01-25T02:48:09.434Z,100717.94
2023-01-25T02:51:21.887Z,100721.67
2023-01-25T02:54:33.947Z,100721.52
2023-01-25T02:57:46.765Z,100719.77
2023-01-25T03:01:01.746Z,100711.97
2023-01-25T03:04:15.251Z,100721.51
2023-01-25T03:07:27.492Z,100716.27
2023-01-25T03:10:40.600Z,100722.15
2023-01-25T03:13:52.909Z,100707.59
2023-01-25T03:17:05.144Z,100713.04
2023-01-25T03:20:19.778Z,100720.06
2023-01-25T03:23:32.206Z,100716.38
2023-01-25T03:26:55.891Z,100708.44
2023-01-25T03:30:11.774Z,100719.77
2023-01-25T03:33:24.020Z,100711.24
2023-01-25T03:36:36.298Z,100711.39
2023-01-25T03:39:48.695Z,100710.61
2023-01-25T03:43:01.612Z,100706.92
2023-01-25T03:46:14.847Z,100699.91
2023-01-25T03:49:28.102Z,100697.44
2023-01-25T03:52:42.331Z,100697.43
2023-01-25T03:55:54.441Z,100689.44
2023-01-25T03:59:09.403Z,100691.47
2023-01-25T04:02:22.131Z,100700.20
2023-01-25T04:05:34.598Z,100694.13
2023-01-25T04:08:47.276Z,100696.70
2023-01-25T04:11:59.567Z,100687.13
2023-01-25T04:15:14.745Z,100688.81
2023-01-25T04:18:27.048Z,100680.08
2023-01-25T04:21:40.201Z,100674.17
2023-01-25T04:24:53.005Z,100672.44
2023-01-25T04:28:05.528Z,100676.84
2023-01-25T04:31:17.925Z,100672.44
2023-01-25T04:34:30.289Z,100671.56
2023-01-25T04:37:42.865Z,100664.73
2023-01-25T04:40:55.096Z,100660.47
2023-01-25T04:44:07.981Z,100658.77
2023-01-25T04:47:21.833Z,100662.36
2023-01-25T04:50:34.785Z,100658.97
2023-01-25T04:53:47.468Z,100657.27
2023-01-25T04:57:02.033Z,100655.33
2023-01-25T05:00:17.854Z,100654.56
2023-01-25T05:03:30.529Z,100659.80
2023-01-25T05:06:43.253Z,100656.21
2023-01-25T05:09:57.308Z,100648.31
2023-01-25T05:13:09.667Z,100653.69
2023-01-25T05:16:22.180Z,100653.59
2023-01-25T05:19:34.391Z,100649.33
2023-01-25T05:22:48.335Z,100644.05
2023-01-25T05:26:15.346Z,100644.92
2023-01-25T05:29:27.864Z,100642.40
2023-01-25T05:32:42.104Z,100651.13
2023-01-25T05:35:54.213Z,100642.25
2023-01-25T05:39:06.624Z,100644.67
2023-01-25T05:42:22.304Z,100640.22
2023-01-25T05:45:34.712Z,100641.81
2023-01-25T05:48:47.848Z,100627.70
2023-01-25T05:52:00.273Z,100628.68
2023-01-25T05:55:15.711Z,100629.61
2023-01-25T05:58:28.264Z,100633.09
2023-01-25T06:01:40.774Z,100633.05
2023-01-25T06:04:53.471Z,100638.13
2023-01-25T06:08:06.148Z,100643.20
2023-01-25T06:11:22.720Z,100639.56
2023-01-25T06:14:35.654Z,100642.17
2023-01-25T06:17:49.176Z,100636.84
2023-01-25T06:21:20.377Z,100637.66
2023-01-25T06:24:32.601Z,100630.78
2023-01-25T06:27:44.665Z,100634.13
2023-01-25T06:30:57.121Z,100631.56
2023-01-25T06:34:10.161Z,100628.02
2023-01-25T06:37:23.055Z,100622.05
2023-01-25T06:40:36.017Z,100627.28
2023-01-25T06:43:48.222Z,100613.28
2023-01-25T06:47:00.958Z,100621.23
2023-01-25T06:50:15.557Z,100616.72
2023-01-25T06:53:28.481Z,100615.81
2023-01-25T06:56:40.645Z,100609.69
2023-01-25T06:59:52.739Z,100599.28
2023-01-25T07:03:04.664Z,100609.75
2023-01-25T07:06:17.500Z,100601.90
2023-01-25T07:09:29.670Z,100601.02
2023-01-25T07:12:41.627Z,100600.04
2023-01-25T07:16:00.550Z,100606.09
2023-01-25T07:19:15.650Z,100605.17
2023-01-25T07:22:27.820Z,100599.13
2023-01-25T07:25:40.236Z,100589.47
2023-01-25T07:28:53.501Z,100595.52
2023-01-25T07:32:06.772Z,100600.15
2023-01-25T07:35:19.236Z,100600.36
2023-01-25T07:38:31.467Z,100597.53
2023-01-25T07:41:43.868Z,100586.95
2023-01-25T07:44:58.802Z,100592.95
2023-01-25T07:48:15.711Z,100574.03
2023-01-25T07:51:28.016Z,100573.70
2023-01-25T07:54:40.554Z,100572.95
2023-01-25T07:57:53.145Z,100567.64
2023-01-25T08:01:14.185Z,100577.30
2023-01-25T08:04:26.572Z,100567.81
2023-01-25T08:07:38.709Z,100562.36
2023-01-25T08:10:50.790Z,100564.98
2023-01-25T08:14:03.682Z,100564.21
2023-01-25T08:17:15.715Z,100564.05
2023-01-25T08:20:27.910Z,100557.89
2023-01-25T08:23:39.989Z,100551.50
2023-01-25T08:26:52.114Z,100549.52
2023-01-25T08:30:04.019Z,100547.65
2023-01-25T08:33:16.467Z,100542.76
2023-01-25T08:36:29.679Z,100536.30
2023-01-25T08:39:42.094Z,100543.17
2023-01-25T08:42:54.300Z,100542.06
2023-01-25T08:46:06.609Z,100544.11
2023-01-25T08:49:18.695Z,100531.14
2023-01-25T08:52:30.837Z,100530.30
2023-01-25T08:55:45.049Z,100535.55
2023-01-25T08:58:57.646Z,100543.06
2023-01-25T09:02:09.925Z,100541.24
2023-01-25T09:05:22.233Z,100534.33
2023-01-25T09:08:34.293Z,100533.96
2023-01-25T09:11:46.242Z,100532.91
2023-01-25T09:14:59.009Z,100528.38
2023-01-25T09:18:11.539Z,100523.77
2023-01-25T09:21:24.866Z,100515.77
2023-01-25T09:24:37.519Z,100514.02
2023-01-25T09:27:49.693Z,100512.63
2023-01-25T09:31:21.139Z,100505.07
2023-01-25T09:34:29.249Z,100501.56
2023-01-25T09:37:41.172Z,100494.38
2023-01-25T09:41:02.568Z,100493.83
2023-01-25T09:44:34.446Z,100484.69
2023-01-25T09:47:55.889Z,100474.40
2023-01-25T09:51:25.481Z,100473.08
2023-01-25T09:54:48.206Z,100466.83
2023-01-25T09:57:59.979Z,100462.83
2023-01-25T10:01:38.165Z,100458.33
2023-01-25T10:04:47.293Z,100461.81
2023-01-25T10:08:05.216Z,100447.84
2023-01-25T10:11:26.071Z,100446.85
2023-01-25T10:14:38.053Z,100443.55
2023-01-25T10:17:50.653Z,100427.81
2023-01-25T10:21:07.509Z,100423.38
2023-01-25T10:24:44.905Z,100418.81
2023-01-25T10:28:12.858Z,100408.98
2023-01-25T10:31:31.704Z,100419.61
2023-01-25T10:34:56.690Z,100415.30
2023-01-25T10:38:09.584Z,100401.25
2023-01-25T10:41:28.502Z,100395.05
2023-01-25T10:44:42.015Z,100383.60
2023-01-25T10:48:01.470Z,100387.89
2023-01-25T10:51:13.921Z,100386.88
2023-01-25T10:54:30.188Z,100384.41
2023-01-25T10:57:44.505Z,100388.63
2023-01-25T11:00:58.731Z,100384.25
2023-01-25T11:04:18.979Z,100382.21
2023-01-25T11:07:35.607Z,100378.02
2023-01-25T11:10:51.448Z,100379.63
2023-01-25T11:14:06.137Z,100369.89
2023-01-25T11:17:30.498Z,100355.63
2023-01-25T11:20:42.697Z,100353.16
2023-01-25T11:24:23.071Z,100347.02
2023-01-25T11:27:35.547Z,100342.89
2023-01-25T11:30:48.099Z,100339.94
2023-01-25T11:34:00.376Z,100342.44
2023-01-25T11:37:50.374Z,100326.13
2023-01-25T11:41:09.153Z,100322.67
2023-01-25T11:44:41.844Z,100315.53
2023-01-25T11:48:08.573Z,100307.89
2023-01-25T11:51:25.613Z,100311.88
2023-01-25T11:54:55.773Z,100294.11
2023-01-25T11:58:36.923Z,100295.20
2023-01-25T12:02:00.394Z,100293.61
2023-01-25T12:05:34.849Z,100294.54
2023-01-25T12:09:19.212Z,100286.89
2023-01-25T12:12:44.759Z,100278.86
2023-01-25T12:16:20.256Z,100269.17
2023-01-25T12:19:54.453Z,100264.75
2023-01-25T12:23:21.715Z,100261.23
2023-01-25T12:26:41.199Z,100256.44
2023-01-25T12:29:59.144Z,100252.00
2023-01-25T12:33:17.492Z,100247.55
2023-01-25T12:36:35.842Z,100239.77
2023-01-25T12:39:54.765Z,100240.47
2023-01-25T12:43:07.743Z,100230.84
2023-01-25T12:46:26.462Z,100226.56
2023-01-25T12:49:44.536Z,100223.80
2023-01-25T12:53:01.909Z,100221.48
2023-01-25T12:56:18.915Z,100220.62
2023-01-25T12:59:40.479Z,100218.13
2023-01-25T13:03:14.732Z,100216.30
2023-01-25T13:06:33.295Z,100210.88
2023-01-25T13:09:52.359Z,100207.70
2023-01-25T13:13:08.213Z,100208.17
2023-01-25T13:16:51.851Z,100207.17
2023-01-25T13:20:05.779Z,100196.75
2023-01-25T13:23:37.826Z,100203.66
2023-01-25T13:27:09.072Z,100192.92
2023-01-25T13:30:40.188Z,100193.03
2023-01-25T13:33:52.423Z,100184.43
2023-01-25T13:37:04.551Z,100187.12
2023-01-25T13:40:35.792Z,100189.61
2023-01-25T13:43:55.144Z,100180.70
2023-01-25T13:47:10.844Z,100176.56
2023-01-25T13:50:29.590Z,100173.21
2023-01-25T13:53:45.493Z,100169.80
2023-01-25T13:57:12.829Z,100166.38
2023-01-25T14:00:28.257Z,100170.19
2023-01-25T14:03:45.868Z,100165.71
2023-01-25T14:07:06.167Z,100157.22
2023-01-25T14:10:27.875Z,100163.66
2023-01-25T14:13:40.205Z,100158.57
2023-01-25T14:16:55.336Z,100151.50
2023-01-25T14:20:10.618Z,100147.19
2023-01-25T14:23:32.732Z,100139.56
2023-01-25T14:26:47.787Z,100128.94
2023-01-25T14:30:00.477Z,100134.38
2023-01-25T14:33:24.596Z,100124.80
2023-01-25T14:36:38.530Z,100129.20
2023-01-25T14:39:52.142Z,100128.44
2023-01-25T14:43:05.504Z,100126.98
2023-01-25T14:46:36.396Z,100128.67
2023-01-25T14:49:48.706Z,100123.33
2023-01-25T14:53:01.271Z,100124.36
2023-01-25T14:56:24.307Z,100121.80
2023-01-25T14:59:42.552Z,100129.76
2023-01-25T15:02:58.064Z,100123.79
2023-01-25T15:06:12.395Z,100115.13
2023-01-25T15:10:01.087Z,100118.55
2023-01-25T15:13:27.544Z,100113.24
2023-01-25T15:16:43.373Z,100113.31
2023-01-25T15:20:01.273Z,100110.47
2023-01-25T15:23:28.673Z,100103.63
2023-01-25T15:26:42.086Z,100099.35
2023-01-25T15:29:54.855Z,100095.64
2023-01-25T15:33:08.533Z,100094.75
2023-01-25T15:36:21.638Z,100083.13
2023-01-25T15:39:35.155Z,100093.83
2023-01-25T15:42:47.485Z,100078.78
2023-01-25T15:46:00.750Z,100078.02
2023-01-25T15:49:15.071Z,100089.25
2023-01-25T15:52:27.385Z,100082.19
2023-01-25T15:55:41.131Z,100080.63
2023-01-25T15:58:57.939Z,100073.80
2023-01-25T16:02:10.208Z,100065.81
2023-01-25T16:05:22.915Z,100070.16
2023-01-25T16:08:35.533Z,100064.91
2023-01-25T16:11:51.145Z,100068.43
2023-01-25T16:15:03.432Z,100063.42
2023-01-25T16:18:20.375Z,100055.72
2023-01-25T16:21:31.892Z,100054.13
2023-01-25T16:24:43.991Z,100054.98
2023-01-25T16:27:56.730Z,100046.34
2023-01-25T16:31:09.792Z,100039.41
2023-01-25T16:34:23.849Z,100028.94
2023-01-25T16:37:37.317Z,100027.34
2023-01-25T16:40:49.585Z,100030.98
2023-01-25T16:44:02.061Z,100032.00
2023-01-25T16:47:18.204Z,100023.34
2023-01-25T16:50:31.061Z,100018.21
2023-01-25T16:53:43.115Z,100012.65
2023-01-25T16:56:56.805Z,100014.34
2023-01-25T17:00:10.657Z,100007.52
2023-01-25T17:03:23.463Z,99994.33
2023-01-25T17:06:38.532Z,99991.34
2023-01-25T17:09:50.867Z,99994.09
2023-01-25T17:13:03.186Z,99992.59
2023-01-25T17:16:15.715Z,99981.16
2023-01-25T17:19:28.516Z,99985.31
2023-01-25T17:22:42.109Z,99978.15
2023-01-25T17:25:54.436Z,99975.53
2023-01-25T17:29:07.620Z,99973.08
2023-01-25T17:32:19.575Z,99975.56
2023-01-25T17:35:31.582Z,99966.98
2023-01-25T17:38:43.984Z,99966.19
2023-01-25T17:41:57.371Z,99962.77
2023-01-25T17:45:11.134Z,99950.61
2023-01-25T17:48:23.402Z,99955.64
2023-01-25T17:51:36.706Z,99948.78
2023-01-25T17:54:48.759Z,99952.30
2023-01-25T17:58:00.803Z,99948.88
2023-01-25T18:01:20.100Z,99949.74
2023-01-25T18:04:32.172Z,99944.61
2023-01-25T18:07:45.212Z,99941.39
2023-01-25T18:10:57.509Z,99940.60
2023-01-25T18:14:12.805Z,99933.64
2023-01-25T18:17:25.613Z,99931.59
2023-01-25T18:20:37.633Z,99934.34
2023-01-25T18:23:53.036Z,99920.39
2023-01-25T18:27:11.045Z,99919.76
2023-01-25T18:30:37.043Z,99918.93
2023-01-25T18:33:49.280Z,99909.52
2023-01-25T18:37:02.107Z,99905.05
2023-01-25T18:40:19.047Z,99899.81
2023-01-25T18:43:29.594Z,99897.92
2023-01-25T18:46:43.306Z,99895.30
2023-01-25T18:49:57.343Z,99883.97
2023-01-25T18:53:09.400Z,99894.58
2023-01-25T18:56:23.843Z,99889.34
2023-01-25T18:59:36.276Z,99879.04
2023-01-25T19:02:48.632Z,99883.34
2023-01-25T19:06:01.389Z,99879.91
2023-01-25T19:09:13.431Z,99876.28
2023-01-25T19:12:25.599Z,99866.61
2023-01-25T19:15:37.694Z,99873.57
2023-01-25T19:18:53.172Z,99869.47
2023-01-25T19:22:06.766Z,99864.23
2023-01-25T19:25:19.538Z,99858.10
2023-01-25T19:28:32.775Z,99857.41
2023-01-25T19:31:45.576Z,99853.34
2023-01-25T19:34:58.720Z,99851.09
2023-01-25T19:38:10.925Z,99845.09
2023-01-25T19:41:25.191Z,99851.98
2023-01-25T19:44:37.320Z,99854.11
2023-01-25T19:47:49.490Z,99842.05
2023-01-25T19:51:11.861Z,99844.59
2023-01-25T19:54:25.127Z,99848.23
2023-01-25T19:57:38.400Z,99839.44
2023-01-25T20:00:50.549Z,99831.52
2023-01-25T20:04:05.995Z,99827.88
2023-01-25T20:07:18.802Z,99826.61
2023-01-25T20:10:30.899Z,99823.11
2023-01-25T20:13:43.538Z,99821.14
2023-01-25T20:16:56.061Z,99817.42
2023-01-25T20:20:08.603Z,99814.95
2023-01-25T20:23:20.549Z,99814.16
2023-01-25T20:26:36.643Z,99815.25
2023-01-25T20:29:49.185Z,99811.64
2023-01-25T20:33:01.083Z,99809.81
2023-01-25T20:36:14.745Z,99816.05
2023-01-25T20:39:28.148Z,99811.29
2023-01-25T20:42:47.634Z,99811.75
2023-01-25T20:46:01.986Z,99806.22
2023-01-25T20:49:17.995Z,99800.13
2023-01-25T20:52:30.194Z,99795.59
2023-01-25T20:55:42.489Z,99792.28
2023-01-25T20:58:55.229Z,99797.88
2023-01-25T21:02:07.538Z,99790.93
2023-01-25T21:05:20.022Z,99790.70
2023-01-25T21:08:36.226Z,99788.02
2023-01-25T21:11:48.886Z,99790.70
2023-01-25T21:15:01.249Z,99792.28
2023-01-25T21:18:14.502Z,99784.38
2023-01-25T21:21:30.004Z,99782.92
2023-01-25T21:24:43.204Z,99783.78
2023-01-25T21:27:55.725Z,99780.14
2023-01-25T21:31:15.496Z,99776.63
2023-01-25T21:34:28.352Z,99772.86
2023-01-25T21:37:40.852Z,99777.98
2023-01-25T21:40:53.259Z,99776.09
2023-01-25T21:44:21.436Z,99769.94
2023-01-25T21:47:35.491Z,99776.96
2023-01-25T21:51:02.458Z,99770.97
2023-01-25T21:54:14.956Z,99768.42
2023-01-25T21:57:27.058Z,99759.68
2023-01-25T22:00:39.669Z,99750.19
2023-01-25T22:03:55.151Z,99737.75
2023-01-25T22:07:08.009Z,99744.46
2023-01-25T22:10:20.921Z,99740.81
2023-01-25T22:13:34.876Z,99741.95
2023-01-25T22:16:47.251Z,99737.58
2023-01-25T22:19:59.312Z,99731.39
2023-01-25T22:23:11.425Z,99719.77
2023-01-25T22:26:26.994Z,99724.89
2023-01-25T22:29:40.270Z,99719.66
2023-01-25T22:32:52.313Z,99714.50
2023-01-25T22:36:04.795Z,99708.65
2023-01-25T22:39:19.269Z,99705.06
2023-01-25T22:42:31.814Z,99707.85
2023-01-25T22:45:43.959Z,99700.80
2023-01-25T22:48:56.561Z,99705.31
2023-01-25T22:52:08.895Z,99707.85
2023-01-25T22:55:21.627Z,99701.04
2023-01-25T22:58:33.932Z,99692.95
2023-01-25T23:01:46.022Z,99690.34
2023-01-25T23:04:58.236Z,99683.39
2023-01-25T23:08:11.040Z,99680.13
2023-01-25T23:11:26.343Z,99677.44
2023-01-25T23:14:59.139Z,99683.63
2023-01-25T23:18:26.790Z,99675.69
2023-01-25T23:21:39.935Z,99663.52
2023-01-25T23:24:52.040Z,99664.30
2023-01-25T23:28:04.250Z,99667.84
2023-01-25T23:31:21.914Z,99664.67
2023-01-25T23:34:35.099Z,99663.20
2023-01-25T23:37:47.314Z,99660.34
2023-01-25T23:40:59.204Z,99653.43
2023-01-25T23:44:14.260Z,99645.59
2023-01-25T23:47:26.127Z,99649.95
2023-01-25T23:50:38.172Z,99649.30
2023-01-25T23:53:50.952Z,99647.41
2023-01-25T23:57:02.997Z,99644.90
